Time;durP1;ratioP1;P1;durP2;ratioP2;P2;SDS_P1;SDS_P2;PMS_P1;PMS_P2;Temp;Humidity;BMP_temperature;BMP_pressure;BME280_temperature;BME280_humidity;BME280_pressure;Samples;Min_cycle;Max_cycle;Signal;HPM_P1;HPM_P2
2023/06/03 00:01:33;;;;;;;;;;;;;;;;;;5054546;28;19934;-19
2023/06/03 00:03:59;;;;;;;;;;;;;;;;;;5055474;28;19928;-19
2023/06/03 00:06:25;;;;;;;;;;;;;;;;;;5058744;28;19909;-22
2023/06/03 00:08:51;;;;;;;;;;;;;;;;;;5058729;28;19913;-20
2023/06/03 00:11:17;;;;;;;;;;;;;;;;;;5059194;28;19915;-20
2023/06/03 00:13:43;;;;;;;;;;;;;;;;;;5058578;28;19913;-18
2023/06/03 00:16:09;;;;;;;;;;;;;;;;;;5058556;28;19915;-21
2023/06/03 00:18:35;;;;;;;;;;;;;;;;;;5058562;28;19932;-19
2023/06/03 00:21:02;;;;;;;;;;;;;;;;;;5058524;28;19952;-18
2023/06/03 00:23:28;;;;;;;;;;;;;;;;;;5058424;28;20266;-19
2023/06/03 00:25:54;;;;;;;;;;;;;;;;;;5058296;28;19939;-20
2023/06/03 00:28:20;;;;;;;;;;;;;;;;;;5058602;28;19909;-20
2023/06/03 00:30:46;;;;;;;;;;;;;;;;;;5058274;28;19909;-20
2023/06/03 00:33:12;;;;;;;;;;;;;;;;;;5058179;28;19944;-20
2023/06/03 00:35:38;;;;;;;;;;;;;;;;;;5058494;28;20354;-20
2023/06/03 00:38:04;;;;;;;;;;;;;;;;;;5058470;28;20332;-19
2023/06/03 00:40:30;;;;;;;;;;;;;;;;;;5058420;28;19908;-20
2023/06/03 00:42:55;;;;;;;;;;;;;;;;;;5058241;28;19969;-19
2023/06/03 00:45:21;;;;;;;;;;;;;;;;;;5057969;28;20091;-21
2023/06/03 00:47:47;;;;;;;;;;;;;;;;;;5058229;28;19909;-19
2023/06/03 00:50:14;;;;;;;;;;;;;;;;;;5057918;28;19909;-18
2023/06/03 00:52:40;;;;;;;;;;;;;;;;;;5057867;28;19963;-18
2023/06/03 00:55:06;;;;;;;;;;;;;;;;;;5057896;28;19913;-19
2023/06/03 00:57:32;;;;;;;;;;;;;;;;;;5057846;28;19991;-21
2023/06/03 00:59:58;;;;;;;;;;;;;;;;;;5056850;28;19909;-21
2023/06/03 01:02:23;;;;;;;;;;;;;;;;;;5057718;28;19909;-21
2023/06/03 01:04:49;;;;;;;;;;;;;;;;;;5057452;28;20292;-19
2023/06/03 01:07:16;;;;;;;;;;;;;;;;;;5057566;28;19917;-20
2023/06/03 01:09:42;;;;;;;;;;;;;;;;;;5057578;28;20343;-20
2023/06/03 01:12:08;;;;;;;;;;;;;;;;;;5057507;28;19966;-20
2023/06/03 01:14:34;;;;;;;;;;;;;;;;;;5057742;28;19908;-21
2023/06/03 01:17:09;;;;;;;;;;;;;;;;;;5057756;28;19909;-20
2023/06/03 01:19:36;;;;;;;;;;;;;;;;;;5057748;28;19909;-19
2023/06/03 01:22:02;;;;;;;;;;;;;;;;;;5057785;28;19920;-19
2023/06/03 01:24:30;;;;;;;;;;;;;;;;;;5057230;28;19943;-20
2023/06/03 01:26:57;;;;;;;;;;;;;;;;;;5057525;28;19919;-19
2023/06/03 01:29:23;;;;;;;;;;;;;;;;;;5057415;28;19952;-18
2023/06/03 01:31:48;;;;;;;;;;;;;;;;;;5057176;28;20267;-20
2023/06/03 01:34:14;;;;;;;;;;;;;;;;;;5057074;28;19919;-20
2023/06/03 01:36:40;;;;;;;;;;;;;;;;;;5057094;28;19908;-21
2023/06/03 01:39:06;;;;;;;;;;;;;;;;;;5057058;28;19970;-21
2023/06/03 01:41:32;;;;;;;;;;;;;;;;;;5057302;28;19955;-19
2023/06/03 01:43:58;;;;;;;;;;;;;;;;;;5056889;28;19920;-20
2023/06/03 01:46:24;;;;;;;;;;;;;;;;;;5056950;28;20315;-19
2023/06/03 01:48:50;;;;;;;;;;;;;;;;;;5056912;28;19916;-20
2023/06/03 01:51:16;;;;;;;;;;;;;;;;;;5056855;28;19920;-21
2023/06/03 01:53:42;;;;;;;;;;;;;;;;;;5055702;28;19912;-21
2023/06/03 01:56:08;;;;;;;;;;;;;;;;;;5056669;28;19908;-19
2023/06/03 01:58:34;;;;;;;;;;;;;;;;;;5056643;28;19964;-19
2023/06/03 02:01:00;;;;;;;;;;;;;;;;;;5056590;28;19966;-20
2023/06/03 02:03:26;;;;;;;;;;;;;;;;;;5056485;28;19928;-20
2023/06/03 02:05:52;;;;;;;;;;;;;;;;;;5056490;28;19917;-21
2023/06/03 02:08:18;;;;;;;;;;;;;;;;;;5056760;28;20380;-22
2023/06/03 02:10:45;;;;;;;;;;;;;;;;;;5056429;28;19909;-20
2023/06/03 02:13:10;;;;;;;;;;;;;;;;;;5056258;28;19908;-21
2023/06/03 02:15:40;;;;;;;;;;;;;;;;;;5056251;28;19923;-19
2023/06/03 02:18:06;;;;;;;;;;;;;;;;;;5056310;28;20356;-18
2023/06/03 02:20:32;;;;;;;;;;;;;;;;;;5056529;28;19920;-20
2023/06/03 02:22:58;;;;;;;;;;;;;;;;;;5056106;28;19909;-20
2023/06/03 02:25:24;;;;;;;;;;;;;;;;;;5056144;28;19948;-20
2023/06/03 02:27:50;;;;;;;;;;;;;;;;;;5055661;28;20343;-19
2023/06/03 02:30:16;;;;;;;;;;;;;;;;;;5056040;28;19979;-18
2023/06/03 02:32:42;;;;;;;;;;;;;;;;;;5056032;28;19920;-21
2023/06/03 02:35:08;;;;;;;;;;;;;;;;;;5056234;28;19909;-19
2023/06/03 02:37:34;;;;;;;;;;;;;;;;;;5055999;28;19909;-21
2023/06/03 02:40:00;;;;;;;;;;;;;;;;;;5056423;28;20335;-19
2023/06/03 02:42:26;;;;;;;;;;;;;;;;;;5055771;28;20263;-19
2023/06/03 02:44:52;;;;;;;;;;;;;;;;;;5055742;28;20244;-19
2023/06/03 02:47:18;;;;;;;;;;;;;;;;;;5055680;28;19920;-20
2023/06/03 02:49:45;;;;;;;;;;;;;;;;;;5055720;28;19909;-20
2023/06/03 02:52:11;;;;;;;;;;;;;;;;;;5055784;28;19909;-20
2023/06/03 02:54:36;;;;;;;;;;;;;;;;;;5055601;28;20301;-20
2023/06/03 02:57:02;;;;;;;;;;;;;;;;;;5055832;28;19925;-19
2023/06/03 02:59:28;;;;;;;;;;;;;;;;;;5055820;28;19920;-19
2023/06/03 03:01:54;;;;;;;;;;;;;;;;;;5054443;28;19909;-20
2023/06/03 03:04:20;;;;;;;;;;;;;;;;;;5055413;28;19920;-20
2023/06/03 03:06:49;;;;;;;;;;;;;;;;;;5055657;28;19995;-20
2023/06/03 03:09:15;;;;;;;;;;;;;;;;;;5055589;28;19909;-20
2023/06/03 03:11:41;;;;;;;;;;;;;;;;;;5055572;28;19962;-20
2023/06/03 03:14:06;;;;;;;;;;;;;;;;;;5055399;28;19908;-20
2023/06/03 03:16:35;;;;;;;;;;;;;;;;;;5055170;28;19909;-20
2023/06/03 03:19:01;;;;;;;;;;;;;;;;;;5055199;28;19909;-19
2023/06/03 03:21:27;;;;;;;;;;;;;;;;;;5054112;28;20264;-19
2023/06/03 03:23:53;;;;;;;;;;;;;;;;;;5055000;28;20267;-20
2023/06/03 03:26:18;;;;;;;;;;;;;;;;;;5055050;28;19909;-20
2023/06/03 03:28:44;;;;;;;;;;;;;;;;;;5055063;28;19935;-20
2023/06/03 03:31:13;;;;;;;;;;;;;;;;;;5054998;28;20258;-20
2023/06/03 03:33:39;;;;;;;;;;;;;;;;;;5054926;28;19920;-19
2023/06/03 03:36:20;;;;;;;;;;;;;;;;;;5054887;28;20004;-20
2023/06/03 03:38:46;;;;;;;;;;;;;;;;;;5054675;28;20203;-21
2023/06/03 03:41:12;;;;;;;;;;;;;;;;;;5053916;28;20020;-20
2023/06/03 03:43:38;;;;;;;;;;;;;;;;;;5054727;28;19978;-20
2023/06/03 03:46:04;;;;;;;;;;;;;;;;;;5055237;28;19913;-20
2023/06/03 03:48:33;;;;;;;;;;;;;;;;;;5054789;28;19920;-19
2023/06/03 03:50:59;;;;;;;;;;;;;;;;;;5054738;28;19916;-21
2023/06/03 03:53:24;;;;;;;;;;;;;;;;;;5054638;28;19912;-20
2023/06/03 03:55:50;;;;;;;;;;;;;;;;;;5054908;28;19908;-22
2023/06/03 03:58:16;;;;;;;;;;;;;;;;;;5053649;28;19909;-19
2023/06/03 04:00:43;;;;;;;;;;;;;;;;;;5054792;28;19909;-19
2023/06/03 04:03:09;;;;;;;;;;;;;;;;;;5054436;28;19966;-18
2023/06/03 04:05:35;;;;;;;;;;;;;;;;;;5054819;28;20339;-20
2023/06/03 04:08:01;;;;;;;;;;;;;;;;;;5054793;28;19928;-19
2023/06/03 04:10:27;;;;;;;;;;;;;;;;;;5054834;28;20374;-20
2023/06/03 04:12:53;;;;;;;;;;;;;;;;;;5054729;28;20236;-20
2023/06/03 04:15:30;;;;;;;;;;;;;;;;;;5054452;28;19912;-20
2023/06/03 04:17:56;;;;;;;;;;;;;;;;;;5054992;28;20342;-20
2023/06/03 04:20:22;;;;;;;;;;;;;;;;;;5054443;28;19913;-19
2023/06/03 04:22:48;;;;;;;;;;;;;;;;;;5054296;28;20004;-21
2023/06/03 04:25:14;;;;;;;;;;;;;;;;;;5054293;28;19924;-21
2023/06/03 04:27:40;;;;;;;;;;;;;;;;;;5054648;28;19963;-19
2023/06/03 04:30:06;;;;;;;;;;;;;;;;;;5054566;28;20235;-19
2023/06/03 04:32:32;;;;;;;;;;;;;;;;;;5054260;28;20332;-19
2023/06/03 04:34:57;;;;;;;;;;;;;;;;;;5054562;28;19958;-20
2023/06/03 04:37:24;;;;;;;;;;;;;;;;;;5054322;28;19963;-19
2023/06/03 04:39:51;;;;;;;;;;;;;;;;;;5054562;28;19909;-27
2023/06/03 04:42:17;;;;;;;;;;;;;;;;;;5054192;28;19966;-20
2023/06/03 04:44:43;;;;;;;;;;;;;;;;;;5054152;28;19923;-19
2023/06/03 04:47:12;;;;;;;;;;;;;;;;;;5054148;28;19909;-19
2023/06/03 04:49:38;;;;;;;;;;;;;;;;;;5054978;28;20290;-20
2023/06/03 04:52:05;;;;;;;;;;;;;;;;;;5057812;28;19947;-20
2023/06/03 04:54:31;;;;;;;;;;;;;;;;;;5058208;28;19967;-20
2023/06/03 04:56:57;;;;;;;;;;;;;;;;;;5058360;28;20290;-20
2023/06/03 04:59:23;;;;;;;;;;;;;;;;;;5057788;28;19967;-20
2023/06/03 05:01:50;;;;;;;;;;;;;;;;;;5057709;28;20359;-20
2023/06/03 05:04:19;;;;;;;;;;;;;;;;;;5057548;28;19921;-19
2023/06/03 05:06:45;;;;;;;;;;;;;;;;;;5057623;28;19908;-19
2023/06/03 05:09:11;;;;;;;;;;;;;;;;;;5057628;28;19913;-19
2023/06/03 05:11:37;;;;;;;;;;;;;;;;;;5057634;28;20376;-19
2023/06/03 05:14:03;;;;;;;;;;;;;;;;;;5057705;28;19908;-20
2023/06/03 05:16:29;;;;;;;;;;;;;;;;;;5057754;28;19971;-19
2023/06/03 05:18:55;;;;;;;;;;;;;;;;;;5056480;28;20249;-20
2023/06/03 05:21:21;;;;;;;;;;;;;;;;;;5057682;28;19909;-20
2023/06/03 05:23:47;;;;;;;;;;;;;;;;;;5057184;28;19937;-20
2023/06/03 05:26:13;;;;;;;;;;;;;;;;;;5057213;28;19916;-19
2023/06/03 05:28:39;;;;;;;;;;;;;;;;;;5057529;28;19909;-20
2023/06/03 05:31:05;;;;;;;;;;;;;;;;;;5057521;28;19916;-19
2023/06/03 05:33:31;;;;;;;;;;;;;;;;;;5057121;28;20294;-19
2023/06/03 05:35:57;;;;;;;;;;;;;;;;;;5057102;28;20395;-19
2023/06/03 05:38:23;;;;;;;;;;;;;;;;;;5057041;28;19909;-18
2023/06/03 05:40:49;;;;;;;;;;;;;;;;;;5057049;28;19928;-19
2023/06/03 05:43:18;;;;;;;;;;;;;;;;;;5057186;28;19928;-19
2023/06/03 05:45:44;;;;;;;;;;;;;;;;;;5057153;28;20357;-19
2023/06/03 05:48:10;;;;;;;;;;;;;;;;;;5057186;28;19952;-19
2023/06/03 05:50:36;;;;;;;;;;;;;;;;;;5056866;28;19965;-19
2023/06/03 05:53:02;;;;;;;;;;;;;;;;;;5056968;28;20352;-21
2023/06/03 05:55:27;;;;;;;;;;;;;;;;;;5057060;28;20003;-19
2023/06/03 05:57:53;;;;;;;;;;;;;;;;;;5056704;28;20248;-22
2023/06/03 06:00:20;;;;;;;;;;;;;;;;;;5056612;28;19909;-19
2023/06/03 06:02:47;;;;;;;;;;;;;;;;;;5055843;28;19986;-19
2023/06/03 06:05:13;;;;;;;;;;;;;;;;;;5056288;28;19936;-20
2023/06/03 06:07:39;;;;;;;;;;;;;;;;;;5056489;28;20334;-19
2023/06/03 06:10:05;;;;;;;;;;;;;;;;;;5057278;28;20004;-19
2023/06/03 06:12:31;;;;;;;;;;;;;;;;;;5056370;28;20340;-20
2023/06/03 06:14:57;;;;;;;;;;;;;;;;;;5056349;28;19909;-20
2023/06/03 06:17:23;;;;;;;;;;;;;;;;;;5056281;28;19916;-20
2023/06/03 06:19:49;;;;;;;;;;;;;;;;;;5056269;28;19909;-20
2023/06/03 06:22:15;;;;;;;;;;;;;;;;;;5056246;28;19909;-19
2023/06/03 06:24:41;;;;;;;;;;;;;;;;;;5056117;28;19924;-20
2023/06/03 06:27:07;;;;;;;;;;;;;;;;;;5056158;28;19908;-20
2023/06/03 06:29:33;;;;;;;;;;;;;;;;;;5056090;28;19909;-21
2023/06/03 06:31:59;;;;;;;;;;;;;;;;;;5056500;28;19908;-21
2023/06/03 06:34:29;;;;;;;;;;;;;;;;;;5056752;28;20398;-19
2023/06/03 06:36:55;;;;;;;;;;;;;;;;;;5055997;28;19909;-20
2023/06/03 06:39:21;;;;;;;;;;;;;;;;;;5055895;28;20300;-20
2023/06/03 06:41:47;;;;;;;;;;;;;;;;;;5055778;28;20259;-19
2023/06/03 06:44:13;;;;;;;;;;;;;;;;;;5055719;28;20059;-20
2023/06/03 06:46:39;;;;;;;;;;;;;;;;;;5055992;28;20342;-20
2023/06/03 06:49:06;;;;;;;;;;;;;;;;;;5055694;28;19935;-19
2023/06/03 06:51:32;;;;;;;;;;;;;;;;;;5055916;28;19995;-19
2023/06/03 06:53:57;;;;;;;;;;;;;;;;;;5055884;28;20336;-20
2023/06/03 06:56:23;;;;;;;;;;;;;;;;;;5055836;28;19908;-20
2023/06/03 06:58:49;;;;;;;;;;;;;;;;;;5055878;28;19967;-20
2023/06/03 07:01:15;;;;;;;;;;;;;;;;;;5055911;28;19935;-20
2023/06/03 07:03:41;;;;;;;;;;;;;;;;;;5055195;28;19917;-20
2023/06/03 07:06:07;;;;;;;;;;;;;;;;;;5055402;28;19927;-20
2023/06/03 07:08:33;;;;;;;;;;;;;;;;;;5055413;28;19970;-19
2023/06/03 07:10:59;;;;;;;;;;;;;;;;;;5054374;28;19913;-20
2023/06/03 07:13:26;;;;;;;;;;;;;;;;;;5055173;28;19912;-23
2023/06/03 07:15:52;;;;;;;;;;;;;;;;;;5055975;28;19931;-21
2023/06/03 07:18:18;;;;;;;;;;;;;;;;;;5055399;28;20332;-19
2023/06/03 07:20:44;;;;;;;;;;;;;;;;;;5055139;28;20343;-20
2023/06/03 07:23:10;;;;;;;;;;;;;;;;;;5054995;28;19909;-20
2023/06/03 07:25:36;;;;;;;;;;;;;;;;;;5055225;28;19923;-19
2023/06/03 07:28:02;;;;;;;;;;;;;;;;;;5055057;28;19913;-21
2023/06/03 07:30:28;;;;;;;;;;;;;;;;;;5054959;28;19916;-19
2023/06/03 07:32:54;;;;;;;;;;;;;;;;;;5054891;28;19908;-20
2023/06/03 07:35:20;;;;;;;;;;;;;;;;;;5054997;28;19908;-19
2023/06/03 07:37:46;;;;;;;;;;;;;;;;;;5054913;28;20004;-19
2023/06/03 07:40:12;;;;;;;;;;;;;;;;;;5055139;28;19909;-19
2023/06/03 07:42:40;;;;;;;;;;;;;;;;;;5054940;28;20004;-19
2023/06/03 07:45:06;;;;;;;;;;;;;;;;;;5054749;28;19913;-19
2023/06/03 07:47:32;;;;;;;;;;;;;;;;;;5054769;28;19974;-20
2023/06/03 07:50:00;;;;;;;;;;;;;;;;;;5054757;28;19919;-21
2023/06/03 07:52:26;;;;;;;;;;;;;;;;;;5054564;28;19909;-19
2023/06/03 07:54:52;;;;;;;;;;;;;;;;;;5054897;28;19987;-20
2023/06/03 07:57:18;;;;;;;;;;;;;;;;;;5054881;28;20359;-21
2023/06/03 07:59:44;;;;;;;;;;;;;;;;;;5054866;28;19920;-21
2023/06/03 08:02:10;;;;;;;;;;;;;;;;;;5054504;28;19909;-19
2023/06/03 08:04:37;;;;;;;;;;;;;;;;;;5053310;28;19920;-19
2023/06/03 08:07:05;;;;;;;;;;;;;;;;;;5054859;28;19974;-19
2023/06/03 08:09:31;;;;;;;;;;;;;;;;;;5054523;28;19916;-20
2023/06/03 08:11:57;;;;;;;;;;;;;;;;;;5054710;28;19923;-18
2023/06/03 08:14:23;;;;;;;;;;;;;;;;;;5054569;28;19909;-19
2023/06/03 08:16:49;;;;;;;;;;;;;;;;;;5054603;28;19912;-20
2023/06/03 08:19:15;;;;;;;;;;;;;;;;;;5054546;28;20430;-21
2023/06/03 08:21:41;;;;;;;;;;;;;;;;;;5054754;28;19940;-19
2023/06/03 08:24:09;;;;;;;;;;;;;;;;;;5054370;28;19909;-19
2023/06/03 08:26:36;;;;;;;;;;;;;;;;;;5058317;28;19948;-19
2023/06/03 08:29:02;;;;;;;;;;;;;;;;;;5058473;28;19917;-20
2023/06/03 08:31:29;;;;;;;;;;;;;;;;;;5058378;28;19920;-20
2023/06/03 08:33:55;;;;;;;;;;;;;;;;;;5058272;28;19916;-20
2023/06/03 08:36:21;;;;;;;;;;;;;;;;;;5057259;28;19909;-20
2023/06/03 08:38:47;;;;;;;;;;;;;;;;;;5058232;28;19932;-20
2023/06/03 08:41:13;;;;;;;;;;;;;;;;;;5058415;28;19948;-20
2023/06/03 08:43:39;;;;;;;;;;;;;;;;;;5058082;28;19931;-21
2023/06/03 08:46:05;;;;;;;;;;;;;;;;;;5058300;28;19913;-20
2023/06/03 08:48:31;;;;;;;;;;;;;;;;;;5058287;28;19966;-21
2023/06/03 08:50:57;;;;;;;;;;;;;;;;;;5057962;28;20294;-19
2023/06/03 08:53:23;;;;;;;;;;;;;;;;;;5057959;28;19958;-20
2023/06/03 08:55:49;;;;;;;;;;;;;;;;;;5058171;28;20386;-20
2023/06/03 08:58:15;;;;;;;;;;;;;;;;;;5058121;28;19909;-21
2023/06/03 09:00:41;;;;;;;;;;;;;;;;;;5057833;28;19909;-20
2023/06/03 09:03:07;;;;;;;;;;;;;;;;;;5057562;28;19909;-19
2023/06/03 09:05:33;;;;;;;;;;;;;;;;;;5057669;28;19979;-20
2023/06/03 09:07:59;;;;;;;;;;;;;;;;;;5057944;28;19909;-20
2023/06/03 09:10:25;;;;;;;;;;;;;;;;;;5056645;28;19909;-19
2023/06/03 09:12:54;;;;;;;;;;;;;;;;;;5057800;28;20347;-19
2023/06/03 09:15:20;;;;;;;;;;;;;;;;;;5057802;28;19909;-20
2023/06/03 09:17:46;;;;;;;;;;;;;;;;;;5057439;28;19915;-21
2023/06/03 09:20:12;;;;;;;;;;;;;;;;;;5057640;28;19912;-20
2023/06/03 09:22:38;;;;;;;;;;;;;;;;;;5057601;28;19971;-20
2023/06/03 09:25:04;;;;;;;;;;;;;;;;;;5057304;28;20313;-20
2023/06/03 09:27:30;;;;;;;;;;;;;;;;;;5057297;28;19909;-21
2023/06/03 09:29:56;;;;;;;;;;;;;;;;;;5057217;28;19935;-20
2023/06/03 09:32:22;;;;;;;;;;;;;;;;;;5057893;28;19912;-21
2023/06/03 09:34:49;;;;;;;;;;;;;;;;;;5057178;28;19909;-20
2023/06/03 09:37:15;;;;;;;;;;;;;;;;;;5055807;28;19909;-19
2023/06/03 09:39:41;;;;;;;;;;;;;;;;;;5057099;28;20383;-18
2023/06/03 09:42:07;;;;;;;;;;;;;;;;;;5056932;28;19966;-19
2023/06/03 09:44:33;;;;;;;;;;;;;;;;;;5056912;28;20241;-21
2023/06/03 09:46:59;;;;;;;;;;;;;;;;;;5056914;28;20050;-19
2023/06/03 09:49:25;;;;;;;;;;;;;;;;;;5056881;28;19909;-19
2023/06/03 09:51:51;;;;;;;;;;;;;;;;;;5057033;28;19909;-19
2023/06/03 09:54:17;;;;;;;;;;;;;;;;;;5057085;28;19909;-20
2023/06/03 09:56:45;;;;;;;;;;;;;;;;;;5057042;28;19909;-20
2023/06/03 09:59:12;;;;;;;;;;;;;;;;;;5057024;28;19908;-19
2023/06/03 10:01:38;;;;;;;;;;;;;;;;;;5056585;28;19920;-20
2023/06/03 10:04:04;;;;;;;;;;;;;;;;;;5056615;28;19920;-20
2023/06/03 10:06:30;;;;;;;;;;;;;;;;;;5055666;28;19959;-22
2023/06/03 10:08:56;;;;;;;;;;;;;;;;;;5056553;28;19948;-20
2023/06/03 10:11:23;;;;;;;;;;;;;;;;;;5055502;28;19913;-20
2023/06/03 10:13:50;;;;;;;;;;;;;;;;;;5055462;28;19944;-20
2023/06/03 10:16:16;;;;;;;;;;;;;;;;;;5056687;28;19912;-20
2023/06/03 10:18:42;;;;;;;;;;;;;;;;;;5056368;28;19912;-19
2023/06/03 10:21:08;;;;;;;;;;;;;;;;;;5056272;28;19920;-20
2023/06/03 10:23:33;;;;;;;;;;;;;;;;;;5056223;28;19909;-19
2023/06/03 10:25:59;;;;;;;;;;;;;;;;;;5056636;28;19920;-19
2023/06/03 10:28:25;;;;;;;;;;;;;;;;;;5056167;28;19909;-19
2023/06/03 10:30:51;;;;;;;;;;;;;;;;;;5056631;28;20389;-19
2023/06/03 10:33:18;;;;;;;;;;;;;;;;;;5055994;28;20241;-19
2023/06/03 10:35:44;;;;;;;;;;;;;;;;;;5056031;28;19934;-19
2023/06/03 10:38:10;;;;;;;;;;;;;;;;;;5056185;28;19920;-20
2023/06/03 10:40:36;;;;;;;;;;;;;;;;;;5055888;28;19971;-21
2023/06/03 10:43:02;;;;;;;;;;;;;;;;;;5055853;28;19942;-21
2023/06/03 10:45:28;;;;;;;;;;;;;;;;;;5056078;28;19912;-19
2023/06/03 10:47:54;;;;;;;;;;;;;;;;;;5055468;28;20378;-19
2023/06/03 10:50:20;;;;;;;;;;;;;;;;;;5055764;28;19909;-20
2023/06/03 10:52:48;;;;;;;;;;;;;;;;;;5055703;28;19909;-19
2023/06/03 10:55:14;;;;;;;;;;;;;;;;;;5055966;28;19937;-20
2023/06/03 10:57:40;;;;;;;;;;;;;;;;;;5055615;28;20308;-20
2023/06/03 11:00:06;;;;;;;;;;;;;;;;;;5055545;28;19909;-19
2023/06/03 11:02:32;;;;;;;;;;;;;;;;;;5055468;28;19966;-19
2023/06/03 11:04:58;;;;;;;;;;;;;;;;;;5055293;28;19921;-22
2023/06/03 11:07:25;;;;;;;;;;;;;;;;;;5055459;28;19908;-19
2023/06/03 11:09:51;;;;;;;;;;;;;;;;;;5055415;28;19909;-19
2023/06/03 11:12:17;;;;;;;;;;;;;;;;;;5055656;28;19909;-21
2023/06/03 11:14:48;;;;;;;;;;;;;;;;;;5055838;28;20342;-18
2023/06/03 11:17:15;;;;;;;;;;;;;;;;;;5055316;28;19955;-19
2023/06/03 11:19:41;;;;;;;;;;;;;;;;;;5054217;28;20271;-19
2023/06/03 11:22:10;;;;;;;;;;;;;;;;;;5055423;28;19916;-19
2023/06/03 11:24:38;;;;;;;;;;;;;;;;;;5054714;28;20204;-18
2023/06/03 11:27:04;;;;;;;;;;;;;;;;;;5055056;28;20319;-19
2023/06/03 11:29:30;;;;;;;;;;;;;;;;;;5055100;28;20008;-18
2023/06/03 11:31:56;;;;;;;;;;;;;;;;;;5055249;28;19948;-20
2023/06/03 11:34:22;;;;;;;;;;;;;;;;;;5055077;28;19912;-18
2023/06/03 11:36:48;;;;;;;;;;;;;;;;;;5055061;28;19909;-18
2023/06/03 11:39:14;;;;;;;;;;;;;;;;;;5055476;28;20316;-20
2023/06/03 11:41:40;;;;;;;;;;;;;;;;;;5054900;28;19919;-19
2023/06/03 11:44:06;;;;;;;;;;;;;;;;;;5054726;28;19988;-19
2023/06/03 11:46:32;;;;;;;;;;;;;;;;;;5055118;28;19977;-19
2023/06/03 11:48:58;;;;;;;;;;;;;;;;;;5054816;28;19917;-19
2023/06/03 11:51:24;;;;;;;;;;;;;;;;;;5054782;28;19909;-19
2023/06/03 11:53:50;;;;;;;;;;;;;;;;;;5054779;28;19944;-19
2023/06/03 11:56:16;;;;;;;;;;;;;;;;;;5054696;28;19974;-22
2023/06/03 11:58:42;;;;;;;;;;;;;;;;;;5054545;28;19913;-19
2023/06/03 12:01:09;;;;;;;;;;;;;;;;;;5054166;28;19908;-19
2023/06/03 12:03:35;;;;;;;;;;;;;;;;;;5054386;28;19916;-21
2023/06/03 12:06:04;;;;;;;;;;;;;;;;;;5054637;28;19967;-19
2023/06/03 12:08:30;;;;;;;;;;;;;;;;;;5054648;28;19966;-20
2023/06/03 12:10:56;;;;;;;;;;;;;;;;;;5054901;28;19955;-16
2023/06/03 12:13:22;;;;;;;;;;;;;;;;;;5054540;28;19955;-18
2023/06/03 12:15:48;;;;;;;;;;;;;;;;;;5054607;28;19967;-18
2023/06/03 12:18:14;;;;;;;;;;;;;;;;;;5054589;28;19913;-20
2023/06/03 12:20:40;;;;;;;;;;;;;;;;;;5054561;28;19909;-19
2023/06/03 12:23:06;;;;;;;;;;;;;;;;;;5054445;28;19909;-19
2023/06/03 12:25:32;;;;;;;;;;;;;;;;;;5054468;28;19977;-20
2023/06/03 12:27:59;;;;;;;;;;;;;;;;;;5053469;28;19909;-20
2023/06/03 12:30:25;;;;;;;;;;;;;;;;;;5054513;28;20010;-17
2023/06/03 12:32:57;;;;;;;;;;;;;;;;;;5054634;28;19916;-20
2023/06/03 12:35:22;;;;;;;;;;;;;;;;;;5054720;28;19913;-18
2023/06/03 12:37:48;;;;;;;;;;;;;;;;;;5054403;28;19909;-20
2023/06/03 12:40:14;;;;;;;;;;;;;;;;;;5054622;28;19955;-18
2023/06/03 12:42:44;;;;;;;;;;;;;;;;;;5054293;28;19909;-19
2023/06/03 12:45:10;;;;;;;;;;;;;;;;;;5054267;28;19913;-19
2023/06/03 12:47:36;;;;;;;;;;;;;;;;;;5054297;28;20259;-19
2023/06/03 12:50:02;;;;;;;;;;;;;;;;;;5054259;28;19912;-19
2023/06/03 12:52:28;;;;;;;;;;;;;;;;;;5054155;28;19909;-20
2023/06/03 12:54:54;;;;;;;;;;;;;;;;;;5054233;28;19909;-19
2023/06/03 12:57:21;;;;;;;;;;;;;;;;;;5054134;28;19909;-19
2023/06/03 12:59:47;;;;;;;;;;;;;;;;;;5054479;28;20339;-18
2023/06/03 13:02:12;;;;;;;;;;;;;;;;;;5054201;28;19908;-19
2023/06/03 13:04:38;;;;;;;;;;;;;;;;;;5053847;28;19921;-18
2023/06/03 13:07:04;;;;;;;;;;;;;;;;;;5054101;28;19967;-19
2023/06/03 13:09:30;;;;;;;;;;;;;;;;;;5054093;28;19981;-19
2023/06/03 13:11:56;;;;;;;;;;;;;;;;;;5056517;28;19951;-18
2023/06/03 13:14:22;;;;;;;;;;;;;;;;;;5057917;28;19913;-18
2023/06/03 13:16:48;;;;;;;;;;;;;;;;;;5057636;28;19916;-18
2023/06/03 13:19:14;;;;;;;;;;;;;;;;;;5057540;28;19920;-18
2023/06/03 13:21:40;;;;;;;;;;;;;;;;;;5057540;28;19944;-18
2023/06/03 13:24:06;;;;;;;;;;;;;;;;;;5057336;28;19908;-18
2023/06/03 13:26:32;;;;;;;;;;;;;;;;;;5057427;28;20000;-19
2023/06/03 13:28:58;;;;;;;;;;;;;;;;;;5057388;28;19952;-18
2023/06/03 13:31:25;;;;;;;;;;;;;;;;;;5057340;28;19938;-18
2023/06/03 13:33:51;;;;;;;;;;;;;;;;;;5057195;28;19920;-20
2023/06/03 13:36:16;;;;;;;;;;;;;;;;;;5057234;28;19908;-18
2023/06/03 13:38:42;;;;;;;;;;;;;;;;;;5057423;28;20015;-18
2023/06/03 13:41:08;;;;;;;;;;;;;;;;;;5057384;28;19962;-19
2023/06/03 13:43:34;;;;;;;;;;;;;;;;;;5056069;28;19909;-19
2023/06/03 13:46:00;;;;;;;;;;;;;;;;;;5057202;28;20282;-19
2023/06/03 13:48:26;;;;;;;;;;;;;;;;;;5057020;28;19955;-17
2023/06/03 13:50:53;;;;;;;;;;;;;;;;;;5056958;28;19913;-18
2023/06/03 13:53:19;;;;;;;;;;;;;;;;;;5056928;28;19909;-20
2023/06/03 13:55:45;;;;;;;;;;;;;;;;;;5057169;28;19916;-19
2023/06/03 13:58:11;;;;;;;;;;;;;;;;;;5056878;28;19909;-21
2023/06/03 14:00:37;;;;;;;;;;;;;;;;;;5056788;28;19913;-19
2023/06/03 14:03:04;;;;;;;;;;;;;;;;;;5056958;28;19963;-17
2023/06/03 14:05:30;;;;;;;;;;;;;;;;;;5056521;28;19957;-19
2023/06/03 14:07:56;;;;;;;;;;;;;;;;;;5057170;28;19955;-22
2023/06/03 14:10:22;;;;;;;;;;;;;;;;;;5056821;28;20052;-19
2023/06/03 14:12:48;;;;;;;;;;;;;;;;;;5056775;28;19909;-19
2023/06/03 14:15:14;;;;;;;;;;;;;;;;;;5056536;28;19909;-19
2023/06/03 14:17:41;;;;;;;;;;;;;;;;;;5056482;28;20371;-20
2023/06/03 14:20:07;;;;;;;;;;;;;;;;;;5056700;28;19909;-20
2023/06/03 14:22:33;;;;;;;;;;;;;;;;;;5055653;28;19923;-19
2023/06/03 14:24:59;;;;;;;;;;;;;;;;;;5056833;28;20395;-19
2023/06/03 14:27:25;;;;;;;;;;;;;;;;;;5056538;28;19909;-19
2023/06/03 14:29:50;;;;;;;;;;;;;;;;;;5056527;28;20197;-19
2023/06/03 14:32:16;;;;;;;;;;;;;;;;;;5055141;28;19908;-19
2023/06/03 14:34:42;;;;;;;;;;;;;;;;;;5056104;28;20248;-18
2023/06/03 14:37:08;;;;;;;;;;;;;;;;;;5056089;28;20016;-20
2023/06/03 14:39:34;;;;;;;;;;;;;;;;;;5056081;28;19959;-19
2023/06/03 14:42:00;;;;;;;;;;;;;;;;;;5056181;28;19943;-18
2023/06/03 14:44:26;;;;;;;;;;;;;;;;;;5056147;28;19916;-19
2023/06/03 14:46:52;;;;;;;;;;;;;;;;;;5056423;28;19966;-19
2023/06/03 14:49:23;;;;;;;;;;;;;;;;;;5055842;28;20012;-18
2023/06/03 14:51:49;;;;;;;;;;;;;;;;;;5056114;28;20303;-18
2023/06/03 14:54:15;;;;;;;;;;;;;;;;;;5056340;28;19912;-19
2023/06/03 14:56:41;;;;;;;;;;;;;;;;;;5055745;28;19909;-19
2023/06/03 14:59:07;;;;;;;;;;;;;;;;;;5055696;28;19909;-19
2023/06/03 15:01:33;;;;;;;;;;;;;;;;;;5055685;28;19909;-18
2023/06/03 15:03:59;;;;;;;;;;;;;;;;;;5055468;28;20287;-20
2023/06/03 15:06:25;;;;;;;;;;;;;;;;;;5055445;28;20231;-19
2023/06/03 15:08:53;;;;;;;;;;;;;;;;;;5055451;28;19966;-19
2023/06/03 15:11:20;;;;;;;;;;;;;;;;;;5055444;28;19962;-20
2023/06/03 15:13:46;;;;;;;;;;;;;;;;;;5055341;28;19908;-19
2023/06/03 15:16:12;;;;;;;;;;;;;;;;;;5055362;28;19987;-19
2023/06/03 15:18:38;;;;;;;;;;;;;;;;;;5055603;28;19957;-19
2023/06/03 15:21:04;;;;;;;;;;;;;;;;;;5054284;28;19985;-18
2023/06/03 15:23:30;;;;;;;;;;;;;;;;;;5055144;28;19909;-20
2023/06/03 15:25:58;;;;;;;;;;;;;;;;;;5055393;28;19923;-20
2023/06/03 15:28:24;;;;;;;;;;;;;;;;;;5055084;28;19995;-20
2023/06/03 15:30:50;;;;;;;;;;;;;;;;;;5055400;28;20014;-17
2023/06/03 15:33:17;;;;;;;;;;;;;;;;;;5054901;28;20336;-19
2023/06/03 15:35:42;;;;;;;;;;;;;;;;;;5055788;28;20005;-19
2023/06/03 15:38:08;;;;;;;;;;;;;;;;;;5055016;28;19908;-19
2023/06/03 15:40:35;;;;;;;;;;;;;;;;;;5055241;28;19970;-21
2023/06/03 15:43:01;;;;;;;;;;;;;;;;;;5055015;28;20346;-18
2023/06/03 15:45:26;;;;;;;;;;;;;;;;;;5055137;28;19913;-19
2023/06/03 15:47:52;;;;;;;;;;;;;;;;;;5054935;28;20323;-19
2023/06/03 15:50:18;;;;;;;;;;;;;;;;;;5054870;28;19908;-20
2023/06/03 15:52:44;;;;;;;;;;;;;;;;;;5055013;28;19909;-20
2023/06/03 15:55:10;;;;;;;;;;;;;;;;;;5055081;28;19909;-18
2023/06/03 15:57:36;;;;;;;;;;;;;;;;;;5054749;28;20258;-18
2023/06/03 16:00:03;;;;;;;;;;;;;;;;;;5054680;28;20252;-20
2023/06/03 16:02:30;;;;;;;;;;;;;;;;;;5054610;28;19920;-18
2023/06/03 16:04:56;;;;;;;;;;;;;;;;;;5054438;28;19932;-20
2023/06/03 16:07:22;;;;;;;;;;;;;;;;;;5054676;28;19913;-19
2023/06/03 16:09:48;;;;;;;;;;;;;;;;;;5054910;28;19963;-20
2023/06/03 16:12:14;;;;;;;;;;;;;;;;;;5054524;28;19916;-21
2023/06/03 16:14:40;;;;;;;;;;;;;;;;;;5054829;28;19992;-18
2023/06/03 16:17:06;;;;;;;;;;;;;;;;;;5054825;28;19955;-19
2023/06/03 16:19:32;;;;;;;;;;;;;;;;;;5054589;28;19917;-19
2023/06/03 16:21:58;;;;;;;;;;;;;;;;;;5054497;28;20256;-19
2023/06/03 16:24:24;;;;;;;;;;;;;;;;;;5054407;28;20012;-19
2023/06/03 16:26:50;;;;;;;;;;;;;;;;;;5054849;28;20360;-19
2023/06/03 16:29:16;;;;;;;;;;;;;;;;;;5054489;28;19934;-19
2023/06/03 16:31:42;;;;;;;;;;;;;;;;;;5054977;28;20233;-20
2023/06/03 16:34:09;;;;;;;;;;;;;;;;;;5054630;28;19979;-20
2023/06/03 16:36:36;;;;;;;;;;;;;;;;;;5054385;28;19909;-18
2023/06/03 16:39:02;;;;;;;;;;;;;;;;;;5054407;28;19909;-19